Time;durP1;ratioP1;P1;durP2;ratioP2;P2;SDS_P1;SDS_P2;PMS_P1;PMS_P2;Temp;Humidity;BMP_temperature;BMP_pressure;BME280_temperature;BME280_humidity;BME280_pressure;Samples;Min_cycle;Max_cycle;Signal;HPM_P1;HPM_P2
2022/08/03 00:01:58;;;;;;;1.70;1.60;;;;;;;15.69;100.00;99730.72;5174556;27;20050;-50
2022/08/03 00:04:24;;;;;;;2.13;1.60;;;;;;;15.66;100.00;99717.63;5174664;27;20050;-48
2022/08/03 00:06:51;;;;;;;5.80;1.65;;;;;;;15.62;100.00;99719.59;5174373;27;20053;-49
2022/08/03 00:09:17;;;;;;;1.77;1.60;;;;;;;15.63;100.00;99718.44;5174517;27;20117;-52
2022/08/03 00:11:44;;;;;;;4.88;1.80;;;;;;;15.59;100.00;99723.13;5174166;27;20129;-48
2022/08/03 00:14:10;;;;;;;2.65;1.67;;;;;;;15.59;100.00;99721.13;5174233;27;20406;-49
2022/08/03 00:16:36;;;;;;;3.78;1.58;;;;;;;15.57;100.00;99720.75;5174192;27;20050;-50
2022/08/03 00:19:03;;;;;;;1.50;1.40;;;;;;;15.56;100.00;99721.13;5174210;27;20057;-49
2022/08/03 00:21:29;;;;;;;6.63;1.52;;;;;;;15.57;100.00;99714.44;5174544;27;20046;-48
2022/08/03 00:23:55;;;;;;;2.25;1.55;;;;;;;15.54;100.00;99708.50;5174224;27;20058;-48
2022/08/03 00:26:22;;;;;;;1.70;1.60;;;;;;;15.46;100.00;99706.88;5174411;27;20046;-48
2022/08/03 00:28:49;;;;;;;2.33;1.48;;;;;;;15.50;100.00;99713.22;5174295;27;20042;-49
2022/08/03 00:31:15;;;;;;;2.97;1.92;;;;;;;15.50;100.00;99720.72;5174310;27;20050;-49
2022/08/03 00:33:41;;;;;;;3.20;1.75;;;;;;;15.46;100.00;99706.06;5174158;27;20061;-48
2022/08/03 00:36:08;;;;;;;3.92;1.90;;;;;;;15.46;100.00;99717.91;5174312;27;20043;-50
2022/08/03 00:38:34;;;;;;;5.85;1.50;;;;;;;15.45;100.00;99707.25;5174365;27;20104;-52
2022/08/03 00:41:00;;;;;;;1.52;1.40;;;;;;;15.32;100.00;99706.75;5173819;27;20133;-49
2022/08/03 00:43:26;;;;;;;1.55;1.45;;;;;;;15.38;100.00;99698.91;5174064;27;20118;-52
2022/08/03 00:45:53;;;;;;;5.72;1.80;;;;;;;15.41;100.00;99703.66;5173987;27;20054;-53
2022/08/03 00:48:20;;;;;;;2.22;1.42;;;;;;;15.38;100.00;99694.16;5174036;27;20118;-51
2022/08/03 00:50:47;;;;;;;5.50;1.77;;;;;;;15.39;100.00;99695.75;5173805;27;20042;-52
2022/08/03 00:53:14;;;;;;;1.48;1.38;;;;;;;15.23;100.00;99698.03;5173835;27;20060;-51
2022/08/03 00:55:41;;;;;;;5.53;1.70;;;;;;;15.32;100.00;99690.19;5173554;27;20132;-51
2022/08/03 00:58:09;;;;;;;4.75;2.20;;;;;;;15.38;100.00;99690.63;5173789;27;20042;-51
2022/08/03 01:00:38;;;;;;;2.92;1.60;;;;;;;15.40;100.00;99678.00;5173784;27;20050;-51
2022/08/03 01:03:06;;;;;;;1.50;1.40;;;;;;;15.37;100.00;99689.03;5173978;27;20054;-51
2022/08/03 01:05:39;;;;;;;2.10;1.90;;;;;;;15.35;100.00;99694.94;5173728;27;20054;-49
2022/08/03 01:08:14;;;;;;;1.77;1.63;;;;;;;15.27;100.00;99688.56;5173438;27;20084;-51
2022/08/03 01:10:48;;;;;;;3.00;1.50;;;;;;;15.28;100.00;99689.38;5172220;27;20097;-49
2022/08/03 01:13:24;;;;;;;3.75;2.08;;;;;;;15.22;100.00;99685.38;5173392;27;20054;-50
2022/08/03 01:15:57;;;;;;;4.80;1.50;;;;;;;15.18;100.00;99681.78;5173322;27;20046;-49
2022/08/03 01:18:31;;;;;;;2.93;2.00;;;;;;;15.18;100.00;99682.59;5173338;27;20186;-50
2022/08/03 01:21:03;;;;;;;2.80;1.90;;;;;;;15.20;100.00;99677.47;5173626;27;20653;-49
2022/08/03 01:24:02;;;;;;;2.25;1.70;;;;;;;15.21;100.00;99684.59;5173203;27;20054;-52
2022/08/03 01:26:47;;;;;;;3.25;1.67;;;;;;;15.15;100.00;99680.59;5170493;27;20465;-51
2022/08/03 01:29:55;;;;;;;3.30;1.80;;;;;;;15.16;100.00;99678.63;5173261;27;20050;-51
2022/08/03 01:32:36;;;;;;;2.53;1.92;;;;;;;15.10;100.00;99672.66;5068062;28;20581;-48
2022/08/03 01:35:08;;;;;;;1.70;1.60;;;;;;;15.03;100.00;99662.38;5158045;27;20046;-52
2022/08/03 01:37:41;;;;;;;3.40;1.65;;;;;;;14.96;100.00;99664.25;5173030;27;20493;-52
2022/08/03 01:40:10;;;;;;;3.40;1.90;;;;;;;15.02;100.00;99659.97;5172955;27;20046;-49
2022/08/03 01:42:38;;;;;;;4.60;1.80;;;;;;;14.99;100.00;99644.97;5173447;27;20141;-51
2022/08/03 01:45:08;;;;;;;2.08;1.95;;;;;;;14.95;100.00;99646.91;5173133;27;20152;-49
2022/08/03 01:47:35;;;;;;;3.03;2.15;;;;;;;14.96;100.00;99655.97;5173207;27;20137;-51
2022/08/03 01:50:03;;;;;;;2.03;1.83;;;;;;;14.72;100.00;99651.84;5172775;27;20500;-52
2022/08/03 01:52:32;;;;;;;3.10;2.00;;;;;;;14.91;100.00;99631.50;5172846;27;20420;-52
2022/08/03 01:54:59;;;;;;;2.38;2.00;;;;;;;14.92;100.00;99635.84;5172665;27;20046;-52
2022/08/03 01:57:28;;;;;;;2.95;2.05;;;;;;;14.95;100.00;99630.34;5172997;27;20553;-49
2022/08/03 01:59:56;;;;;;;3.50;2.13;;;;;;;14.92;100.00;99638.59;5172596;27;20054;-51
2022/08/03 02:02:24;;;;;;;3.97;2.30;;;;;;;14.89;100.00;99640.16;5172388;27;20056;-53
2022/08/03 02:04:53;;;;;;;1.92;1.80;;;;;;;14.87;100.00;99638.97;5172856;27;20069;-49
2022/08/03 02:07:20;;;;;;;4.00;2.20;;;;;;;14.88;100.00;99635.81;5172528;27;20128;-51
2022/08/03 02:09:50;;;;;;;3.17;2.17;;;;;;;14.89;100.00;99631.06;5172822;27;20050;-48
2022/08/03 02:12:17;;;;;;;3.22;2.08;;;;;;;14.70;100.00;99626.59;5172309;27;20046;-50
2022/08/03 02:14:46;;;;;;;2.42;2.05;;;;;;;14.86;100.00;99610.56;5172679;27;20061;-49
2022/08/03 02:17:14;;;;;;;2.67;2.05;;;;;;;14.82;100.00;99620.78;5172282;27;20048;-50
2022/08/03 02:19:42;;;;;;;3.03;1.63;;;;;;;14.85;100.00;99621.97;5172552;27;20446;-49
2022/08/03 02:22:12;;;;;;;2.15;1.90;;;;;;;14.86;100.00;99623.56;5171894;27;20146;-48
2022/08/03 02:24:38;;;;;;;3.88;1.90;;;;;;;14.86;100.00;99623.56;5172403;27;20042;-49
2022/08/03 02:27:09;;;;;;;7.72;1.98;;;;;;;14.83;100.00;99622.38;5172720;27;20920;-50
2022/08/03 02:29:38;;;;;;;1.85;1.75;;;;;;;14.81;100.00;99625.50;5172254;27;20410;-52
2022/08/03 02:32:07;;;;;;;3.65;3.08;;;;;;;14.83;100.00;99617.66;5171995;27;20047;-49
2022/08/03 02:34:35;;;;;;;2.42;2.22;;;;;;;14.84;100.00;99621.19;5172158;27;20163;-50
2022/08/03 02:37:03;;;;;;;2.92;1.90;;;;;;;14.91;100.00;99618.47;5172383;27;20050;-50
2022/08/03 02:39:32;;;;;;;3.40;2.10;;;;;;;14.97;100.00;99624.44;5172255;27;20057;-48
2022/08/03 02:42:01;;;;;;;3.38;2.45;;;;;;;14.93;100.00;99618.13;5172331;27;20042;-48
2022/08/03 02:44:31;;;;;;;1.80;1.70;;;;;;;15.03;100.00;99628.44;5172109;27;20047;-48
2022/08/03 02:47:03;;;;;;;1.60;1.50;;;;;;;15.13;100.00;99629.66;5172169;27;20078;-48
2022/08/03 02:49:30;;;;;;;1.80;1.70;;;;;;;15.18;100.00;99632.09;5172389;27;20047;-49
2022/08/03 02:51:59;;;;;;;5.00;2.72;;;;;;;15.20;100.00;99635.25;5171821;27;20129;-50
2022/08/03 02:54:27;;;;;;;3.30;1.92;;;;;;;15.24;100.00;99650.66;5171984;27;20074;-49
2022/08/03 02:56:56;;;;;;;3.72;1.63;;;;;;;15.22;100.00;99647.50;5172082;27;20046;-48
2022/08/03 02:59:23;;;;;;;3.40;2.00;;;;;;;15.29;100.00;99655.84;5171842;27;20070;-49
2022/08/03 03:01:50;;;;;;;5.55;1.60;;;;;;;15.30;100.00;99667.69;5171836;27;20137;-48
2022/08/03 03:04:18;;;;;;;2.58;2.20;;;;;;;15.26;100.00;99666.84;5172126;27;20050;-48
2022/08/03 03:06:45;;;;;;;4.30;1.90;;;;;;;15.33;100.00;99669.69;5171727;27;20051;-48
2022/08/03 03:09:12;;;;;;;6.57;1.90;;;;;;;15.40;100.00;99680.00;5172017;27;20050;-48
2022/08/03 03:11:40;;;;;;;3.72;1.95;;;;;;;15.44;100.00;99681.59;5172017;27;20050;-48
2022/08/03 03:14:08;;;;;;;3.00;1.90;;;;;;;15.45;100.00;99694.22;5171434;27;20050;-48
2022/08/03 03:16:35;;;;;;;1.60;1.50;;;;;;;15.56;100.00;99699.00;5171811;27;20046;-49
2022/08/03 03:19:02;;;;;;;2.22;2.03;;;;;;;15.54;100.00;99702.97;5171596;27;20102;-48
2022/08/03 03:21:31;;;;;;;2.55;2.17;;;;;;;15.70;100.00;99707.44;5171697;27;20047;-48
2022/08/03 03:23:58;;;;;;;2.85;1.63;;;;;;;15.78;100.00;99720.13;5171555;27;20504;-48
2022/08/03 03:26:25;;;;;;;1.60;1.50;;;;;;;15.79;100.00;99732.75;5171645;27;20054;-48
2022/08/03 03:28:51;;;;;;;7.57;1.77;;;;;;;15.92;100.00;99742.28;5171610;27;20102;-48
2022/08/03 03:31:18;;;;;;;1.55;1.45;;;;;;;16.08;100.00;99753.06;5171674;27;20051;-49
2022/08/03 03:33:45;;;;;;;2.47;1.90;;;;;;;16.19;100.00;99764.97;5171866;27;20056;-47
2022/08/03 03:36:11;;;;;;;1.60;1.50;;;;;;;16.21;100.00;99781.97;5175249;27;20488;-49
2022/08/03 03:38:38;;;;;;;1.73;1.45;;;;;;;16.48;100.00;99803.81;5174964;27;20042;-48
2022/08/03 03:41:05;;;;;;;2.30;1.90;;;;;;;16.99;100.00;99815.88;5175195;27;20568;-49
2022/08/03 03:43:32;;;;;;;2.15;1.30;;;;;;;17.71;100.00;99839.72;5174870;27;20110;-49
2022/08/03 03:46:00;;;;;;;2.45;1.48;;;;;;;18.14;100.00;99831.38;5174783;27;20064;-49
2022/08/03 03:48:27;;;;;;;2.08;1.50;;;;;;;18.78;100.00;99747.03;5174951;27;20160;-51
2022/08/03 03:50:53;;;;;;;3.33;1.80;;;;;;;18.79;100.00;99651.41;5174657;27;20068;-49
2022/08/03 03:53:20;;;;;;;3.58;1.60;;;;;;;19.43;100.00;99522.94;5174895;27;20095;-49
2022/08/03 03:55:46;;;;;;;3.33;1.70;;;;;;;20.00;100.00;99325.84;5174824;27;20493;-49
2022/08/03 03:58:12;;;;;;;2.00;1.80;;;;;;;20.39;100.00;99091.22;5174500;27;20077;-52
2022/08/03 04:00:38;;;;;;;4.10;1.50;;;;;;;20.97;100.00;98979.97;5174547;27;20050;-49
2022/08/03 04:03:05;;;;;;;1.83;1.20;;;;;;;21.16;100.00;98783.13;5174739;27;20050;-51
2022/08/03 04:11:17;;;;;;;3.05;1.50;;;;;;;22.46;100.00;98535.41;5175085;27;20484;-52
2022/08/03 04:13:49;;;;;;;1.20;1.10;;;;;;;22.51;100.00;98484.50;5174197;27;20145;-49
2022/08/03 04:16:19;;;;;;;2.65;1.50;;;;;;;22.96;100.00;98434.75;5174450;27;20054;-50
2022/08/03 04:18:50;;;;;;;3.75;2.00;;;;;;;23.34;100.00;98385.91;5174383;27;20049;-50
2022/08/03 04:21:19;;;;;;;4.28;2.03;;;;;;;23.67;100.00;98374.75;5174293;27;20057;-52
2022/08/03 04:23:49;;;;;;;4.35;1.60;;;;;;;23.77;100.00;98359.50;5174243;27;20061;-51
2022/08/03 04:26:19;;;;;;;1.75;1.40;;;;;;;24.25;100.00;98347.53;5174085;27;20106;-52
2022/08/03 04:28:48;;;;;;;1.48;1.38;;;;;;;24.33;100.00;98349.50;5174133;27;20146;-53
2022/08/03 04:31:16;;;;;;;4.05;1.40;;;;;;;24.81;100.00;98349.44;5174007;27;20516;-53
2022/08/03 04:33:44;;;;;;;1.30;1.20;;;;;;;24.84;100.00;98345.69;5174086;27;20049;-53
2022/08/03 04:36:15;;;;;;;2.75;1.60;;;;;;;24.88;100.00;98354.66;5174065;27;20061;-51
2022/08/03 04:38:52;;;;;;;3.28;1.50;;;;;;;25.23;100.00;98361.69;5174176;27;20049;-51
2022/08/03 04:41:20;;;;;;;2.67;1.75;;;;;;;25.34;100.00;98376.66;5173933;27;20515;-54
2022/08/03 04:43:48;;;;;;;3.85;2.55;;;;;;;25.57;100.00;98383.41;5174016;27;20428;-50
2022/08/03 04:46:15;;;;;;;3.60;1.40;;;;;;;25.87;100.00;98405.06;5173598;27;20050;-53
2022/08/03 04:48:42;;;;;;;3.10;1.30;;;;;;;25.84;100.00;98414.47;5173701;27;20053;-53
2022/08/03 04:51:10;;;;;;;4.20;1.52;;;;;;;26.15;100.00;98417.47;5173764;27;20146;-51
2022/08/03 04:53:36;;;;;;;1.50;1.00;;;;;;;25.98;100.00;98444.53;5173560;27;20110;-53
2022/08/03 04:56:07;;;;;;;2.03;1.08;;;;;;;26.22;100.00;98447.97;5173851;27;20054;-50
2022/08/03 04:58:33;;;;;;;3.03;1.10;;;;;;;26.26;100.00;98468.22;5173661;27;20057;-53
2022/08/03 05:01:00;;;;;;;2.65;1.20;;;;;;;26.78;100.00;98478.88;5173929;27;20050;-51
2022/08/03 05:03:26;;;;;;;2.63;1.02;;;;;;;26.67;100.00;98516.06;5173531;27;20050;-51
2022/08/03 05:05:54;;;;;;;2.60;1.45;;;;;;;26.99;100.00;98524.66;5173708;27;20042;-52
2022/08/03 05:08:20;;;;;;;1.38;1.10;;;;;;;26.92;100.00;98556.78;5173720;27;20050;-51
2022/08/03 05:10:47;;;;;;;1.58;1.05;;;;;;;27.30;100.00;98528.91;5173585;27;20046;-53
2022/08/03 05:13:14;;;;;;;2.17;1.00;;;;;;;27.63;100.00;98576.34;5173254;27;20050;-55
2022/08/03 05:15:41;;;;;;;1.02;0.93;;;;;;;27.44;100.00;98609.66;5173251;27;20055;-51
2022/08/03 05:18:07;;;;;;;1.20;1.10;;;;;;;27.33;100.00;98601.84;5173500;27;20046;-52
2022/08/03 05:20:33;;;;;;;2.65;0.90;;;;;;;27.69;100.00;98623.00;5173401;27;20052;-53
2022/08/03 05:23:00;;;;;;;2.17;1.10;;;;;;;27.05;100.00;98623.94;5173107;27;20046;-53
2022/08/03 05:25:27;;;;;;;1.60;1.27;;;;;;;26.32;100.00;98583.47;5173129;27;20137;-51
2022/08/03 05:27:53;;;;;;;2.60;1.50;;;;;;;26.34;100.00;98594.25;5173255;27;20053;-53
2022/08/03 05:30:20;;;;;;;4.32;2.00;;;;;;;26.49;100.00;98566.91;5172957;27;20050;-50
2022/08/03 05:32:46;;;;;;;1.80;1.70;;;;;;;26.25;100.00;98600.75;5173283;27;20050;-51
2022/08/03 05:35:13;;;;;;;3.08;2.00;;;;;;;27.43;100.00;98630.63;5173239;27;20050;-52
2022/08/03 05:37:39;;;;;;;2.40;2.20;;;;;;;27.61;100.00;98654.88;5173383;27;20408;-54
2022/08/03 05:40:06;;;;;;;6.32;1.85;;;;;;;28.19;100.00;98688.81;5173121;27;20053;-52
2022/08/03 05:42:33;;;;;;;2.08;1.50;;;;;;;26.93;100.00;98644.78;5173103;27;20060;-54
2022/08/03 05:45:02;;;;;;;2.22;1.20;;;;;;;27.59;100.00;98651.78;5172913;27;20068;-53
2022/08/03 05:47:29;;;;;;;2.38;1.23;;;;;;;27.10;100.00;98713.28;5172843;27;20046;-52
2022/08/03 05:49:57;;;;;;;3.45;1.17;;;;;;;27.98;100.00;98713.47;5172587;27;20046;-53
2022/08/03 05:52:23;;;;;;;1.80;1.10;;;;;;;27.49;100.00;98713.13;5172592;27;20050;-52
2022/08/03 05:54:50;;;;;;;3.03;1.20;;;;;;;28.79;100.00;98730.19;5172794;27;20133;-51
2022/08/03 05:57:16;;;;;;;4.47;1.80;;;;;;;28.59;100.00;98721.78;5171809;27;20540;-53
2022/08/03 05:59:42;;;;;;;5.70;4.72;;;;;;;27.94;100.00;98718.53;5172762;27;20049;-50
2022/08/03 06:02:09;;;;;;;2.92;2.63;;;;;;;28.09;100.00;98697.47;5172406;27;20053;-54
2022/08/03 06:04:36;;;;;;;21.75;14.35;;;;;;;28.43;100.00;98747.81;5172722;27;20057;-53
2022/08/03 06:07:02;;;;;;;6.80;3.30;;;;;;;27.52;100.00;98700.06;5172743;27;20394;-53
2022/08/03 06:09:29;;;;;;;4.90;1.85;;;;;;;28.48;100.00;98753.47;5172573;27;20046;-52
2022/08/03 06:11:55;;;;;;;15.40;9.25;;;;;;;27.21;100.00;98696.59;5172683;27;20501;-50
2022/08/03 06:14:23;;;;;;;22.10;9.75;;;;;;;28.55;100.00;98752.25;5172272;27;20050;-53
2022/08/03 06:16:49;;;;;;;30.98;17.70;;;;;;;27.70;100.00;98713.88;5172410;27;20082;-52
2022/08/03 06:19:16;;;;;;;16.80;10.02;;;;;;;28.47;100.00;98706.81;5172187;27;20535;-53
2022/08/03 06:21:43;;;;;;;15.45;8.50;;;;;;;29.26;100.00;98744.16;5172432;27;20046;-53
2022/08/03 06:24:09;;;;;;;4.88;2.72;;;;;;;28.77;100.00;98746.06;5172208;27;20050;-51
2022/08/03 06:26:35;;;;;;;13.65;6.55;;;;;;;29.75;100.00;98818.41;5172504;27;20042;-53
2022/08/03 06:29:01;;;;;;;3.58;1.35;;;;;;;29.13;100.00;98797.44;5172023;27;20050;-53
2022/08/03 06:31:28;;;;;;;6.13;2.67;;;;;;;28.34;100.00;98779.72;5171944;27;20053;-54
2022/08/03 06:33:55;;;;;;;2.83;1.52;;;;;;;28.90;100.00;98776.69;5172026;27;20099;-53
2022/08/03 06:36:21;;;;;;;2.15;0.73;;;;;;;28.12;100.00;98777.41;5172161;27;20057;-51
2022/08/03 06:38:48;;;;;;;1.83;1.23;;;;;;;28.75;100.00;98757.06;5171749;27;20042;-53
2022/08/03 06:41:14;;;;;;;9.07;2.47;;;;;;;28.03;100.00;98795.25;5171774;27;20107;-54
2022/08/03 06:43:41;;;;;;;14.43;4.18;;;;;;;27.85;100.00;98768.13;5171810;27;20053;-55
2022/08/03 06:46:07;;;;;;;4.03;1.55;;;;;;;28.24;100.00;98731.16;5172063;27;20402;-55
2022/08/03 06:48:34;;;;;;;3.38;1.23;;;;;;;27.49;100.00;98734.84;5172043;27;20087;-53
2022/08/03 06:51:00;;;;;;;3.67;1.30;;;;;;;26.07;100.00;98657.91;5171832;27;20130;-53
2022/08/03 06:53:26;;;;;;;6.88;5.35;;;;;;;27.32;100.00;98735.38;5172066;27;20050;-54
2022/08/03 06:55:53;;;;;;;7.75;3.78;;;;;;;26.71;100.00;98648.00;5172350;27;20579;-54
2022/08/03 06:58:19;;;;;;;13.10;1.83;;;;;;;27.62;100.00;98726.81;5172242;27;20050;-53
2022/08/03 07:00:46;;;;;;;2.63;1.00;;;;;;;26.96;100.00;98660.66;5171775;27;20046;-54
2022/08/03 07:03:12;;;;;;;5.30;0.85;;;;;;;26.87;100.00;98697.34;5171900;27;20054;-54
2022/08/03 07:05:38;;;;;;;2.55;0.80;;;;;;;25.74;100.00;98605.44;5171685;27;20046;-54
2022/08/03 07:08:04;;;;;;;3.45;1.00;;;;;;;27.04;100.00;98652.59;5171656;27;20092;-52
2022/08/03 07:10:31;;;;;;;2.33;1.02;;;;;;;27.08;100.00;98670.81;5174783;27;20081;-49
2022/08/03 07:12:58;;;;;;;1.98;1.13;;;;;;;28.08;100.00;98743.03;5175116;27;20054;-51
2022/08/03 07:15:24;;;;;;;1.85;1.10;;;;;;;28.07;100.00;98727.41;5175062;27;20061;-54
2022/08/03 07:17:50;;;;;;;1.25;0.80;;;;;;;28.67;100.00;98775.72;5175227;27;20137;-54
2022/08/03 07:20:17;;;;;;;3.67;1.30;;;;;;;27.79;100.00;98716.59;5175344;27;20414;-53
2022/08/03 07:22:43;;;;;;;1.52;1.30;;;;;;;28.44;100.00;98752.94;5175107;27;20054;-52
2022/08/03 07:25:10;;;;;;;7.45;1.73;;;;;;;28.50;100.00;98745.31;5175072;27;20046;-51
2022/08/03 07:27:37;;;;;;;4.82;1.38;;;;;;;28.04;100.00;98793.19;5174963;27;20501;-52
2022/08/03 07:30:08;;;;;;;3.03;1.25;;;;;;;28.62;100.00;98805.38;5175195;27;20053;-54
2022/08/03 07:32:34;;;;;;;1.35;1.17;;;;;;;28.07;100.00;98831.66;5174813;27;20462;-52
2022/08/03 07:35:00;;;;;;;7.45;1.30;;;;;;;29.22;100.00;98785.94;5174956;27;20047;-50
2022/08/03 07:37:27;;;;;;;1.10;1.00;;;;;;;28.52;100.00;98790.69;5174903;27;20046;-51
2022/08/03 07:39:53;;;;;;;4.22;1.35;;;;;;;28.67;100.00;98801.09;5174638;27;20046;-52
2022/08/03 07:42:19;;;;;;;3.10;1.20;;;;;;;29.90;100.00;98802.06;5174670;27;20050;-53
2022/08/03 07:44:45;;;;;;;3.13;1.00;;;;;;;29.68;100.00;98813.22;5174543;27;20062;-53
2022/08/03 07:47:17;;;;;;;0.90;0.88;;;;;;;30.34;100.00;98867.78;5174905;27;20054;-53
2022/08/03 07:49:43;;;;;;;2.60;1.25;;;;;;;30.94;100.00;98874.16;5174627;27;20052;-53
2022/08/03 07:54:53;;;;;;;0.95;0.80;;;;;;;29.99;100.00;98838.59;5174586;27;20061;-53
2022/08/03 07:57:20;;;;;;;1.50;0.90;;;;;;;30.01;100.00;98818.28;5174684;27;20113;-51
2022/08/03 07:59:46;;;;;;;1.52;1.02;;;;;;;29.98;100.00;98788.97;5174711;27;20082;-52
2022/08/03 08:02:13;;;;;;;0.73;0.73;;;;;;;28.72;100.00;98803.19;5174287;27;20054;-53
2022/08/03 08:04:40;;;;;;;4.15;0.65;;;;;;;28.80;100.00;98793.00;5174289;27;20050;-53
2022/08/03 08:07:06;;;;;;;1.95;0.70;;;;;;;28.76;100.00;98789.66;5174253;27;20067;-53
2022/08/03 08:09:33;;;;;;;2.22;0.85;;;;;;;29.73;100.00;98812.50;5174205;27;20137;-51
2022/08/03 08:11:59;;;;;;;0.93;0.93;;;;;;;29.53;100.00;98822.63;5174296;27;20047;-53
2022/08/03 08:14:25;;;;;;;0.88;0.88;;;;;;;29.39;100.00;98840.50;5174277;27;20051;-50
2022/08/03 08:16:51;;;;;;;2.65;0.70;;;;;;;30.17;100.00;98864.88;5174043;27;20090;-49
2022/08/03 08:19:18;;;;;;;0.80;0.80;;;;;;;29.74;100.00;98876.97;5173870;27;20054;-53
2022/08/03 08:21:45;;;;;;;2.22;0.90;;;;;;;30.09;100.00;98866.63;5173952;27;20054;-52
2022/08/03 08:24:11;;;;;;;1.17;0.85;;;;;;;30.34;100.00;98888.34;5174274;27;20088;-53
2022/08/03 08:26:37;;;;;;;1.60;0.82;;;;;;;30.91;100.00;98886.50;5174012;27;20421;-51
2022/08/03 08:29:04;;;;;;;2.25;0.85;;;;;;;30.81;100.00;98905.00;5174131;27;20054;-54
2022/08/03 08:31:30;;;;;;;0.98;0.90;;;;;;;30.89;100.00;98904.00;5173895;27;20057;-54
2022/08/03 08:33:56;;;;;;;4.28;1.05;;;;;;;30.58;100.00;98890.00;5173806;27;20050;-53
2022/08/03 08:36:23;;;;;;;2.17;1.20;;;;;;;31.09;100.00;98925.66;5174053;27;20053;-52
2022/08/03 08:38:49;;;;;;;0.70;0.70;;;;;;;30.73;100.00;98920.91;5173868;27;20149;-53
2022/08/03 08:41:16;;;;;;;0.90;0.60;;;;;;;30.94;100.00;98933.59;5173702;27;20042;-52
2022/08/03 08:43:42;;;;;;;2.00;0.70;;;;;;;30.64;100.00;98910.59;5173807;27;20050;-50
2022/08/03 08:46:12;;;;;;;1.08;0.80;;;;;;;28.99;100.00;98878.88;5174055;27;20046;-52
2022/08/03 08:48:40;;;;;;;0.73;0.68;;;;;;;29.56;100.00;98882.97;5173484;27;20093;-53
2022/08/03 08:51:08;;;;;;;2.05;0.75;;;;;;;30.02;100.00;98905.41;5173790;27;20137;-53
2022/08/03 08:53:36;;;;;;;0.85;0.85;;;;;;;29.78;100.00;98921.94;5173260;27;20054;-54
2022/08/03 08:56:04;;;;;;;1.70;0.80;;;;;;;30.87;100.00;98915.06;5173634;27;20487;-56
2022/08/03 08:58:36;;;;;;;1.95;0.75;;;;;;;30.23;100.00;98968.25;5173511;27;20049;-51
2022/08/03 09:01:03;;;;;;;2.10;0.80;;;;;;;29.91;100.00;98919.44;5173431;27;20060;-54
2022/08/03 09:03:32;;;;;;;2.05;0.90;;;;;;;31.06;100.00;98969.16;5173419;27;20081;-51
2022/08/03 09:05:59;;;;;;;3.95;1.20;;;;;;;29.73;100.00;98914.19;5173285;27;20478;-53
2022/08/03 09:08:26;;;;;;;2.88;0.90;;;;;;;31.50;100.00;98964.09;5173398;27;20046;-52
2022/08/03 09:10:53;;;;;;;1.67;0.90;;;;;;;31.10;100.00;98983.06;5173487;27;20049;-53
2022/08/03 09:13:19;;;;;;;2.70;1.05;;;;;;;30.79;100.00;98967.78;5173534;27;20046;-53
2022/08/03 09:15:45;;;;;;;2.20;1.95;;;;;;;30.84;100.00;98930.22;5173173;27;20497;-53
2022/08/03 09:18:12;;;;;;;1.45;1.35;;;;;;;31.13;100.00;98900.69;5173338;27;20481;-54
2022/08/03 09:20:39;;;;;;;3.15;0.98;;;;;;;30.50;100.00;98920.06;5173090;27;20454;-52
2022/08/03 09:23:09;;;;;;;1.20;0.90;;;;;;;31.91;100.00;98932.44;5173399;27;20424;-54
2022/08/03 09:25:37;;;;;;;3.25;1.00;;;;;;;31.67;100.00;98959.22;5173043;27;20054;-52
2022/08/03 09:28:09;;;;;;;0.85;0.82;;;;;;;31.02;100.00;98945.19;5173164;27;20098;-54
2022/08/03 09:30:38;;;;;;;1.15;0.93;;;;;;;29.99;100.00;98894.31;5173080;27;20136;-52
2022/08/03 09:33:06;;;;;;;2.05;1.00;;;;;;;29.23;100.00;98855.25;5171935;27;20137;-56
2022/08/03 09:35:39;;;;;;;5.63;1.10;;;;;;;29.37;100.00;98820.44;5172770;27;20092;-52
2022/08/03 09:38:09;;;;;;;1.33;1.33;;;;;;;29.65;100.00;98856.59;5172844;27;20057;-51
2022/08/03 09:40:36;;;;;;;2.05;1.08;;;;;;;29.00;100.00;98894.56;5173214;27;20046;-52
2022/08/03 09:43:02;;;;;;;5.97;1.23;;;;;;;28.80;100.00;98863.53;5172735;27;20054;-53
2022/08/03 09:45:29;;;;;;;1.13;1.10;;;;;;;29.35;100.00;98859.69;5173120;27;20056;-52
2022/08/03 09:47:56;;;;;;;2.90;1.00;;;;;;;28.77;100.00;98862.47;5172471;27;20136;-53
2022/08/03 09:50:23;;;;;;;2.13;1.20;;;;;;;28.06;100.00;98774.53;5172706;27;20057;-52
2022/08/03 09:52:50;;;;;;;3.88;0.90;;;;;;;28.36;100.00;98819.47;5172409;27;20092;-54
2022/08/03 09:55:19;;;;;;;3.80;0.95;;;;;;;27.27;100.00;98771.91;5172508;27;20054;-52
2022/08/03 09:57:45;;;;;;;2.80;1.13;;;;;;;27.77;100.00;98771.84;5172615;27;20134;-53
2022/08/03 10:00:13;;;;;;;1.20;1.10;;;;;;;28.30;100.00;98813.75;5172417;27;20101;-53
2022/08/03 10:02:41;;;;;;;1.60;1.20;;;;;;;28.25;100.00;98828.53;5172487;27;20050;-50
2022/08/03 10:05:09;;;;;;;4.38;1.38;;;;;;;28.53;100.00;98820.44;5172446;27;20046;-51
2022/08/03 10:07:43;;;;;;;4.80;0.90;;;;;;;28.92;100.00;98887.75;5172806;27;20046;-51
2022/08/03 10:10:10;;;;;;;1.17;1.05;;;;;;;29.40;100.00;98906.22;5172174;27;20572;-53
2022/08/03 10:12:37;;;;;;;5.03;1.02;;;;;;;29.70;100.00;98930.09;5172690;27;20518;-52
2022/08/03 10:15:04;;;;;;;2.35;1.20;;;;;;;30.58;100.00;98915.44;5172232;27;20050;-52
2022/08/03 10:17:30;;;;;;;0.98;0.98;;;;;;;30.30;100.00;98937.97;5171863;27;20087;-54
2022/08/03 10:19:57;;;;;;;5.45;1.00;;;;;;;29.26;100.00;98876.84;5172242;27;20050;-53
2022/08/03 10:22:27;;;;;;;4.82;0.93;;;;;;;29.57;100.00;98906.34;5172057;27;20050;-52
2022/08/03 10:24:58;;;;;;;1.15;1.05;;;;;;;29.02;100.00;98894.03;5172283;27;20084;-52
2022/08/03 10:27:30;;;;;;;3.50;1.00;;;;;;;29.13;100.00;98887.75;5172161;27;20110;-49
2022/08/03 10:30:01;;;;;;;4.05;0.90;;;;;;;28.13;100.00;98860.69;5172184;27;20053;-52
2022/08/03 10:32:30;;;;;;;3.22;0.90;;;;;;;28.41;100.00;98854.63;5172035;27;20420;-52
2022/08/03 10:35:03;;;;;;;4.05;1.10;;;;;;;28.23;100.00;98830.31;5172297;27;20054;-53
2022/08/03 10:37:33;;;;;;;1.95;0.90;;;;;;;27.82;100.00;98797.25;5171964;27;20057;-53
2022/08/03 10:40:00;;;;;;;3.08;0.98;;;;;;;28.01;100.00;98786.50;5171935;27;20432;-51
2022/08/03 10:42:30;;;;;;;2.55;1.10;;;;;;;28.22;100.00;98778.78;5171929;27;20050;-49
2022/08/03 10:45:03;;;;;;;2.17;1.17;;;;;;;27.57;100.00;98804.31;5175486;27;20054;-53
2022/08/03 10:47:31;;;;;;;0.90;0.90;;;;;;;28.20;100.00;98809.53;5175422;27;20063;-52
2022/08/03 10:49:58;;;;;;;2.22;1.00;;;;;;;28.39;100.00;98824.13;5175498;27;20046;-53
2022/08/03 10:52:25;;;;;;;1.35;1.17;;;;;;;28.14;100.00;98811.50;5175668;27;20057;-53
2022/08/03 10:57:49;;;;;;;2.95;1.10;;;;;;;27.78;100.00;98771.34;5175518;27;20119;-51
2022/08/03 11:00:16;;;;;;;1.00;1.00;;;;;;;27.04;100.00;98751.81;5175439;27;20082;-52
2022/08/03 11:03:02;;;;;;;2.72;1.35;;;;;;;27.91;100.00;98793.53;5175297;27;20129;-52
2022/08/03 11:05:31;;;;;;;1.45;0.82;;;;;;;27.79;100.00;98840.53;5175453;27;20047;-52
2022/08/03 11:08:29;;;;;;;1.67;0.90;;;;;;;28.13;100.00;98819.19;5175096;27;20424;-52
2022/08/03 11:10:58;;;;;;;4.03;1.17;;;;;;;27.78;100.00;98815.66;5175293;27;20043;-54
2022/08/03 11:13:29;;;;;;;7.25;1.30;;;;;;;26.90;100.00;98761.06;5174965;27;20141;-53
2022/08/03 11:15:57;;;;;;;3.25;1.00;;;;;;;26.99;100.00;98756.09;5175398;27;20482;-52
2022/08/03 11:18:25;;;;;;;2.65;1.08;;;;;;;27.11;100.00;98730.94;5175110;27;20054;-52
2022/08/03 11:20:53;;;;;;;1.00;0.90;;;;;;;26.88;100.00;98718.56;5175011;27;20046;-52
2022/08/03 11:23:40;;;;;;;2.15;1.00;;;;;;;27.10;100.00;98695.66;5175105;27;20103;-52
2022/08/03 11:26:13;;;;;;;1.10;1.00;;;;;;;27.38;100.00;98718.56;5174837;27;20050;-53
2022/08/03 11:28:40;;;;;;;2.10;0.90;;;;;;;27.14;100.00;98722.34;5175197;27;20042;-52
2022/08/03 11:31:55;;;;;;;3.53;0.93;;;;;;;26.92;100.00;98705.84;5174630;27;20150;-53
2022/08/03 11:34:23;;;;;;;3.05;1.15;;;;;;;26.79;100.00;98704.63;5174863;27;20050;-49
2022/08/03 11:37:22;;;;;;;1.67;0.80;;;;;;;26.87;100.00;98770.47;5175034;27;20505;-52
2022/08/03 11:39:51;;;;;;;1.55;0.70;;;;;;;26.82;100.00;98816.13;5174627;27;20054;-51
2022/08/03 11:42:45;;;;;;;1.58;1.02;;;;;;;26.52;100.00;98724.16;5174953;27;20050;-52